Time;durP1;ratioP1;P1;durP2;ratioP2;P2;SDS_P1;SDS_P2;PMS_P1;PMS_P2;Temp;Humidity;BMP_temperature;BMP_pressure;BME280_temperature;BME280_humidity;BME280_pressure;Samples;Min_cycle;Max_cycle;Signal;HPM_P1;HPM_P2
2022/12/17 13:06:08;;;;;;;;;;;0.90;99.90;;;;;;5093528;28;19965;-41
2022/12/17 13:08:33;;;;;;;;;;;0.90;99.90;;;;;;5110148;27;20302;-42
2022/12/17 13:11:08;;;;;;;;;;;0.90;99.90;;;;;;5112472;28;19907;-42
2022/12/17 13:13:34;;;;;;;;;;;0.90;99.90;;;;;;5112736;28;19920;-41
2022/12/17 13:16:02;;;;;;;;;;;0.80;99.90;;;;;;5111574;28;19993;-40
2022/12/17 13:18:32;;;;;;;;;;;0.80;99.90;;;;;;5112510;28;20440;-40
2022/12/17 13:20:58;;;;;;;;;;;0.90;99.90;;;;;;5097636;28;19915;-42
2022/12/17 13:23:26;;;;;;;;;;;0.80;99.90;;;;;;5091371;28;19944;-42
2022/12/17 13:26:12;;;;;;;;;;;1.00;99.90;;;;;;5092677;28;19915;-41
2022/12/17 13:28:38;;;;;;;;;;;1.00;99.90;;;;;;5084505;28;19991;-41
2022/12/17 13:31:05;;;;;;;;;;;1.00;99.90;;;;;;5096560;28;20019;-42
2022/12/17 13:33:53;;;;;;;;;;;1.00;99.90;;;;;;5109674;27;19916;-42
2022/12/17 13:36:39;;;;;;;;;;;0.90;99.90;;;;;;5078305;28;19931;-40
2022/12/17 13:39:11;;;;;;;;;;;0.90;99.90;;;;;;5128854;27;20381;-41
2022/12/17 13:41:37;;;;;;;;;;;0.90;99.90;;;;;;5120730;27;19908;-41
2022/12/17 13:44:15;;;;;;;;;;;0.80;99.90;;;;;;5111984;28;19908;-42
2022/12/17 13:46:42;;;;;;;;;;;0.80;99.90;;;;;;5092021;28;20299;-43
2022/12/17 13:49:18;;;;;;;;;;;0.70;99.90;;;;;;5093749;27;20015;-41
2022/12/17 13:51:43;;;;;;;;;;;0.60;99.90;;;;;;5128249;27;19908;-40
2022/12/17 13:54:16;;;;;;;;;;;0.50;99.90;;;;;;5104770;28;19912;-43
2022/12/17 13:56:42;;;;;;;;;;;0.50;99.90;;;;;;5119881;27;19916;-40
2022/12/17 13:59:19;;;;;;;;;;;0.50;99.90;;;;;;5112845;27;20279;-41
2022/12/17 14:01:49;;;;;;;;;;;0.60;99.90;;;;;;5115565;28;20323;-40
2022/12/17 14:04:28;;;;;;;;;;;0.60;99.90;;;;;;5104984;28;19912;-42
2022/12/17 14:06:55;;;;;;;;;;;0.60;99.90;;;;;;5103856;28;19912;-41
2022/12/17 14:09:22;;;;;;;;;;;0.60;99.90;;;;;;5091688;28;20393;-39
2022/12/17 14:14:34;;;;;;;;;;;0.60;99.90;;;;;;5104111;28;19927;-40
2022/12/17 14:16:59;;;;;;;;;;;0.60;99.90;;;;;;5106219;28;19916;-42
2022/12/17 14:19:26;;;;;;;;;;;0.50;99.90;;;;;;5103349;28;19919;-43
2022/12/17 14:21:51;;;;;;;;;;;0.50;99.90;;;;;;5093874;28;19908;-43
2022/12/17 14:24:19;;;;;;;;;;;0.50;99.90;;;;;;5102474;28;19912;-41
2022/12/17 14:26:48;;;;;;;;;;;0.40;99.90;;;;;;5112250;28;19908;-43
2022/12/17 14:29:14;;;;;;;;;;;0.40;99.90;;;;;;5116790;28;20358;-41
2022/12/17 14:31:50;;;;;;;;;;;0.40;99.90;;;;;;5113101;28;19908;-41
2022/12/17 14:34:15;;;;;;;;;;;0.40;99.90;;;;;;5104597;28;19957;-43
2022/12/17 14:36:41;;;;;;;;;;;0.40;99.90;;;;;;5116199;28;19920;-42
2022/12/17 14:39:16;;;;;;;;;;;0.40;99.90;;;;;;5115983;28;20366;-41
2022/12/17 14:44:27;;;;;;;;;;;0.30;99.90;;;;;;5116449;28;19930;-41
2022/12/17 14:47:05;;;;;;;;;;;0.20;99.90;;;;;;5115470;28;20344;-43
2022/12/17 14:49:30;;;;;;;;;;;0.20;99.90;;;;;;5115805;28;19907;-42
2022/12/17 14:51:57;;;;;;;;;;;0.20;99.90;;;;;;5116310;28;19930;-41
2022/12/17 14:54:24;;;;;;;;;;;0.20;99.90;;;;;;5111070;28;19908;-42
2022/12/17 14:56:50;;;;;;;;;;;0.20;99.90;;;;;;5116191;28;19927;-42
2022/12/17 14:59:36;;;;;;;;;;;0.10;99.90;;;;;;5115988;28;20002;-41
2022/12/17 15:02:15;;;;;;;;;;;0.10;99.90;;;;;;5114881;28;20219;-41
2022/12/17 15:04:41;;;;;;;;;;;0.10;99.90;;;;;;5115780;28;19954;-40
2022/12/17 15:07:09;;;;;;;;;;;0.10;99.90;;;;;;5115957;28;19947;-43
2022/12/17 15:09:37;;;;;;;;;;;0.00;99.90;;;;;;5115235;28;19947;-41
2022/12/17 15:12:03;;;;;;;;;;;0.00;99.90;;;;;;5115508;28;20285;-42
2022/12/17 15:14:29;;;;;;;;;;;-0.10;99.90;;;;;;5114635;28;20385;-41
2022/12/17 15:16:55;;;;;;;;;;;-0.10;99.90;;;;;;5115796;28;19923;-41
2022/12/17 15:19:21;;;;;;;;;;;-0.10;99.90;;;;;;5115241;28;20418;-45
2022/12/17 15:21:47;;;;;;;;;;;-0.20;99.90;;;;;;5114900;28;19912;-40
2022/12/17 15:24:14;;;;;;;;;;;-0.10;99.90;;;;;;5109623;28;19919;-42
2022/12/17 15:26:39;;;;;;;;;;;-0.20;99.90;;;;;;5094811;28;19912;-42
2022/12/17 15:29:05;;;;;;;;;;;-0.20;99.90;;;;;;5103681;28;19919;-42
2022/12/17 15:31:30;;;;;;;;;;;-0.20;99.90;;;;;;5114571;28;20396;-41
2022/12/17 15:33:57;;;;;;;;;;;-0.30;99.90;;;;;;5117341;27;20037;-42
2022/12/17 15:36:23;;;;;;;;;;;-0.20;99.90;;;;;;5134504;27;19960;-42
2022/12/17 15:38:48;;;;;;;;;;;-0.30;99.90;;;;;;5114821;27;19987;-42
2022/12/17 15:43:58;;;;;;;;;;;-0.40;99.90;;;;;;5114435;28;19914;-45
2022/12/17 15:46:23;;;;;;;;;;;-0.50;99.90;;;;;;5102219;28;19908;-40
2022/12/17 15:48:49;;;;;;;;;;;-0.50;99.90;;;;;;5094639;28;19909;-41
2022/12/17 15:51:15;;;;;;;;;;;-0.60;99.90;;;;;;5100960;28;19964;-40
2022/12/17 15:53:40;;;;;;;;;;;-0.60;99.90;;;;;;5100501;28;19922;-40
2022/12/17 15:56:06;;;;;;;;;;;-0.60;99.90;;;;;;5096644;28;19924;-41
2022/12/17 15:58:31;;;;;;;;;;;-0.60;99.90;;;;;;5093106;28;20289;-42
2022/12/17 16:00:57;;;;;;;;;;;-0.70;99.90;;;;;;5094436;28;20315;-42
2022/12/17 16:03:22;;;;;;;;;;;-0.70;99.90;;;;;;5094009;28;20363;-41
2022/12/17 16:05:48;;;;;;;;;;;-0.70;99.90;;;;;;5101819;28;19912;-41
2022/12/17 16:08:14;;;;;;;;;;;-0.70;99.90;;;;;;5099872;28;20374;-40
2022/12/17 16:10:39;;;;;;;;;;;-0.70;99.90;;;;;;5113075;28;19916;-41
2022/12/17 16:13:05;;;;;;;;;;;-0.80;99.90;;;;;;5114485;28;19966;-41
2022/12/17 16:15:30;;;;;;;;;;;-0.80;99.90;;;;;;5114198;28;19961;-41
2022/12/17 16:17:56;;;;;;;;;;;-0.80;99.90;;;;;;5113799;28;20047;-41
2022/12/17 16:20:22;;;;;;;;;;;-0.80;99.90;;;;;;5112698;28;19936;-41
2022/12/17 16:22:47;;;;;;;;;;;-0.80;99.90;;;;;;5113550;28;20378;-43
2022/12/17 16:25:13;;;;;;;;;;;-0.80;99.90;;;;;;5113453;28;19946;-42
2022/12/17 16:27:41;;;;;;;;;;;-0.80;99.90;;;;;;5114145;28;20355;-42
2022/12/17 16:30:07;;;;;;;;;;;-0.70;99.90;;;;;;5110085;28;19916;-41
2022/12/17 16:32:32;;;;;;;;;;;-0.70;99.90;;;;;;5094312;28;19912;-42
2022/12/17 16:34:58;;;;;;;;;;;-0.70;99.90;;;;;;5109852;28;19935;-41
2022/12/17 16:37:23;;;;;;;;;;;-0.70;99.90;;;;;;5112462;28;20295;-42
2022/12/17 16:39:49;;;;;;;;;;;-0.70;99.90;;;;;;5112486;28;20266;-42
2022/12/17 16:42:15;;;;;;;;;;;-0.70;99.90;;;;;;5108949;28;19916;-41
2022/12/17 16:44:40;;;;;;;;;;;-0.80;99.90;;;;;;5106748;28;19923;-42
2022/12/17 16:47:06;;;;;;;;;;;-0.80;99.90;;;;;;5094987;28;19909;-41
2022/12/17 16:49:31;;;;;;;;;;;-0.80;99.90;;;;;;5133714;27;20328;-40
2022/12/17 16:51:58;;;;;;;;;;;-0.80;99.90;;;;;;5134230;27;19911;-43
2022/12/17 16:54:25;;;;;;;;;;;-0.80;99.90;;;;;;5110938;28;19907;-43
2022/12/17 16:56:50;;;;;;;;;;;-0.70;99.90;;;;;;5113329;28;19916;-42
2022/12/17 16:59:16;;;;;;;;;;;-0.70;99.90;;;;;;5113653;28;19908;-42
2022/12/17 17:01:43;;;;;;;;;;;-0.70;99.90;;;;;;5102004;27;20344;-41
2022/12/17 17:04:09;;;;;;;;;;;-0.70;99.90;;;;;;5093276;28;19908;-40
2022/12/17 17:06:45;;;;;;;;;;;-0.70;99.90;;;;;;5092741;28;20442;-42
2022/12/17 17:09:11;;;;;;;;;;;-0.60;99.90;;;;;;5113583;28;19919;-42
2022/12/17 17:11:37;;;;;;;;;;;-0.70;99.90;;;;;;5098472;28;19908;-42
2022/12/17 17:14:03;;;;;;;;;;;-0.70;99.90;;;;;;5092233;28;19920;-43
2022/12/17 17:16:29;;;;;;;;;;;-0.70;99.90;;;;;;5092617;28;19924;-41
2022/12/17 17:18:54;;;;;;;;;;;-0.70;99.90;;;;;;5101826;28;20274;-41
2022/12/17 17:21:46;;;;;;;;;;;-0.70;99.90;;;;;;5097324;28;19995;-43
2022/12/17 17:24:14;;;;;;;;;;;-0.70;99.90;;;;;;5118267;27;19907;-42
2022/12/17 17:26:40;;;;;;;;;;;-0.70;99.90;;;;;;5133403;27;19908;-42
2022/12/17 17:29:06;;;;;;;;;;;-0.70;99.90;;;;;;5115658;27;19915;-44
2022/12/17 17:31:32;;;;;;;;;;;-0.70;99.90;;;;;;5111184;28;19912;-42
2022/12/17 17:33:58;;;;;;;;;;;-0.70;99.90;;;;;;5112811;28;19915;-42
2022/12/17 17:36:24;;;;;;;;;;;-0.70;99.90;;;;;;5111747;28;20377;-43
2022/12/17 17:38:51;;;;;;;;;;;-0.80;99.90;;;;;;5113128;28;19951;-42
2022/12/17 17:41:18;;;;;;;;;;;-0.80;99.90;;;;;;5129633;27;19912;-42
2022/12/17 17:43:43;;;;;;;;;;;-0.80;99.90;;;;;;5132337;27;20056;-41
2022/12/17 17:46:11;;;;;;;;;;;-0.90;99.90;;;;;;5133475;27;19969;-41
2022/12/17 17:48:36;;;;;;;;;;;-0.90;99.90;;;;;;5114224;28;19912;-41
2022/12/17 17:51:05;;;;;;;;;;;-0.90;99.90;;;;;;5112151;28;19915;-42
2022/12/17 17:53:30;;;;;;;;;;;-0.90;99.90;;;;;;5112288;28;19945;-42
2022/12/17 17:56:06;;;;;;;;;;;-1.00;99.90;;;;;;5112780;28;19984;-43
2022/12/17 17:58:32;;;;;;;;;;;-1.00;99.90;;;;;;5112397;28;20278;-42
2022/12/17 18:00:57;;;;;;;;;;;-0.90;99.90;;;;;;5111381;28;20385;-44
2022/12/17 18:03:23;;;;;;;;;;;-1.00;99.90;;;;;;5109601;28;20377;-42
2022/12/17 18:05:48;;;;;;;;;;;-1.00;99.90;;;;;;5110659;28;19956;-42
2022/12/17 18:08:14;;;;;;;;;;;-1.00;99.90;;;;;;5110931;28;19911;-41
2022/12/17 18:10:39;;;;;;;;;;;-1.00;99.90;;;;;;5109862;28;19994;-41
2022/12/17 18:15:49;;;;;;;;;;;-1.00;99.90;;;;;;5110610;28;19914;-44
2022/12/17 18:18:14;;;;;;;;;;;-1.10;99.90;;;;;;5110135;28;19911;-44
2022/12/17 18:20:39;;;;;;;;;;;-1.00;99.90;;;;;;5108230;28;19922;-42
2022/12/17 18:23:05;;;;;;;;;;;-1.10;99.90;;;;;;5110513;28;19943;-41
2022/12/17 18:25:32;;;;;;;;;;;-1.10;99.90;;;;;;5109612;28;19912;-43
2022/12/17 18:27:58;;;;;;;;;;;-1.10;99.90;;;;;;5110531;28;19914;-43
2022/12/17 18:30:23;;;;;;;;;;;-1.20;99.90;;;;;;5110975;28;19907;-42
2022/12/17 18:32:48;;;;;;;;;;;-1.10;99.90;;;;;;5111662;28;19915;-42
2022/12/17 18:35:14;;;;;;;;;;;-1.10;99.90;;;;;;5112144;28;20370;-43
2022/12/17 18:37:39;;;;;;;;;;;-1.10;99.90;;;;;;5111904;28;19919;-43
2022/12/17 18:40:06;;;;;;;;;;;-1.10;99.90;;;;;;5110877;28;19920;-41
2022/12/17 18:45:15;;;;;;;;;;;-1.10;99.90;;;;;;5108396;28;19961;-41
2022/12/17 18:47:43;;;;;;;;;;;-1.10;99.90;;;;;;5110576;28;19915;-40
2022/12/17 18:50:08;;;;;;;;;;;-1.10;99.90;;;;;;5108223;28;19912;-45
2022/12/17 18:52:34;;;;;;;;;;;-1.10;99.90;;;;;;5109994;28;19961;-42
2022/12/17 18:54:59;;;;;;;;;;;-1.10;99.90;;;;;;5110558;28;20336;-41
2022/12/17 18:57:25;;;;;;;;;;;-1.10;99.90;;;;;;5110397;28;19969;-41
2022/12/17 18:59:50;;;;;;;;;;;-1.10;99.90;;;;;;5111467;28;19922;-41
2022/12/17 19:02:16;;;;;;;;;;;-1.10;99.90;;;;;;5111987;28;20343;-41
2022/12/17 19:04:41;;;;;;;;;;;-1.10;99.90;;;;;;5110194;28;20351;-41
2022/12/17 19:07:07;;;;;;;;;;;-1.00;99.90;;;;;;5109153;28;19960;-42
2022/12/17 19:09:34;;;;;;;;;;;-1.10;99.90;;;;;;5108914;28;19915;-42
2022/12/17 19:11:59;;;;;;;;;;;-1.10;99.90;;;;;;5108230;28;19947;-40
2022/12/17 19:14:25;;;;;;;;;;;-1.00;99.90;;;;;;5109976;28;19962;-42
2022/12/17 19:16:51;;;;;;;;;;;-1.00;99.90;;;;;;5112710;28;19923;-42
2022/12/17 19:19:17;;;;;;;;;;;-1.00;99.90;;;;;;5112984;28;19911;-42
2022/12/17 19:21:43;;;;;;;;;;;-1.00;99.90;;;;;;5113126;28;19908;-42
2022/12/17 19:24:11;;;;;;;;;;;-1.00;99.90;;;;;;5115303;28;19976;-42
2022/12/17 19:26:36;;;;;;;;;;;-1.00;99.90;;;;;;5114600;28;19960;-41
2022/12/17 19:29:02;;;;;;;;;;;-1.00;99.90;;;;;;5114415;28;19916;-42
2022/12/17 19:31:29;;;;;;;;;;;-1.00;99.90;;;;;;5113568;28;20293;-41
2022/12/17 19:33:55;;;;;;;;;;;-1.10;99.90;;;;;;5110843;28;19912;-41
2022/12/17 19:36:22;;;;;;;;;;;-1.10;99.90;;;;;;5112674;28;19916;-42
2022/12/17 19:38:50;;;;;;;;;;;-1.10;99.90;;;;;;5111438;27;19916;-42
2022/12/17 19:41:16;;;;;;;;;;;-1.10;99.90;;;;;;5111909;28;19943;-41
2022/12/17 19:43:42;;;;;;;;;;;-1.10;99.90;;;;;;5113100;28;20004;-42
2022/12/17 19:46:09;;;;;;;;;;;-1.10;99.90;;;;;;5115337;28;19908;-41
2022/12/17 19:48:35;;;;;;;;;;;-1.20;99.90;;;;;;5114134;28;19911;-42
2022/12/17 19:51:01;;;;;;;;;;;-1.30;99.90;;;;;;5115189;28;19908;-42
2022/12/17 19:53:28;;;;;;;;;;;-1.30;99.90;;;;;;5114360;28;19911;-43
2022/12/17 19:55:54;;;;;;;;;;;-1.30;99.90;;;;;;5121699;27;20281;-42
2022/12/17 19:58:21;;;;;;;;;;;-1.30;99.90;;;;;;5135461;27;19912;-41
2022/12/17 20:00:47;;;;;;;;;;;-1.40;99.90;;;;;;5114127;27;19915;-42
2022/12/17 20:03:12;;;;;;;;;;;-1.30;99.90;;;;;;5109997;28;19926;-43
2022/12/17 20:05:41;;;;;;;;;;;-1.40;99.90;;;;;;5113175;27;19915;-40
2022/12/17 20:08:06;;;;;;;;;;;-1.30;99.90;;;;;;5093825;28;20402;-41
2022/12/17 20:10:32;;;;;;;;;;;-1.40;99.90;;;;;;5122945;27;19907;-43
2022/12/17 20:12:58;;;;;;;;;;;-1.40;99.90;;;;;;5095950;28;20271;-42
2022/12/17 20:15:23;;;;;;;;;;;-1.40;99.90;;;;;;5094200;28;19915;-42
2022/12/17 20:17:49;;;;;;;;;;;-1.40;99.90;;;;;;5093373;28;19917;-41
2022/12/17 20:20:14;;;;;;;;;;;-1.30;99.90;;;;;;5094127;28;20421;-42
2022/12/17 20:22:40;;;;;;;;;;;-1.30;99.90;;;;;;5125720;27;19951;-41
2022/12/17 20:25:08;;;;;;;;;;;-1.30;99.90;;;;;;5117440;27;20438;-43
2022/12/17 20:27:33;;;;;;;;;;;-1.30;99.90;;;;;;5113936;28;19908;-41
2022/12/17 20:29:59;;;;;;;;;;;-1.40;99.90;;;;;;5114398;28;19915;-42
2022/12/17 20:32:24;;;;;;;;;;;-1.40;99.90;;;;;;5112942;28;19908;-42
2022/12/17 20:34:50;;;;;;;;;;;-1.40;99.90;;;;;;5111040;28;19916;-42
2022/12/17 20:37:16;;;;;;;;;;;-1.40;99.90;;;;;;5093744;28;20329;-41
2022/12/17 20:39:41;;;;;;;;;;;-1.40;99.90;;;;;;5103976;28;19912;-42
2022/12/17 20:42:08;;;;;;;;;;;-1.40;99.90;;;;;;5114182;28;19918;-41
2022/12/17 20:44:33;;;;;;;;;;;-1.40;99.90;;;;;;5113892;28;20355;-41
2022/12/17 20:47:00;;;;;;;;;;;-1.40;99.90;;;;;;5113388;28;19915;-43
2022/12/17 20:49:25;;;;;;;;;;;-1.40;99.90;;;;;;5113598;28;19908;-42
2022/12/17 20:51:51;;;;;;;;;;;-1.40;99.90;;;;;;5113247;28;19915;-40
2022/12/17 20:54:17;;;;;;;;;;;-1.40;99.90;;;;;;5113647;28;19908;-42
2022/12/17 20:56:42;;;;;;;;;;;-1.40;99.90;;;;;;5111304;28;20054;-41
2022/12/17 20:59:11;;;;;;;;;;;-1.40;99.90;;;;;;5111146;28;20275;-42
2022/12/17 21:01:37;;;;;;;;;;;-1.40;99.90;;;;;;5111559;28;19915;-41
2022/12/17 21:04:05;;;;;;;;;;;-1.50;99.90;;;;;;5112076;28;19912;-43
2022/12/17 21:06:37;;;;;;;;;;;-1.50;99.90;;;;;;5112473;28;19914;-42
2022/12/17 21:09:03;;;;;;;;;;;-1.60;99.90;;;;;;5113265;28;19915;-41
2022/12/17 21:11:29;;;;;;;;;;;-1.60;99.90;;;;;;5113174;28;19934;-43
2022/12/17 21:13:55;;;;;;;;;;;-1.70;99.90;;;;;;5112325;28;20328;-45
2022/12/17 21:16:25;;;;;;;;;;;-1.70;99.90;;;;;;5112728;28;19919;-43
2022/12/17 21:18:51;;;;;;;;;;;-1.60;99.90;;;;;;5111610;28;19908;-41
2022/12/17 21:21:18;;;;;;;;;;;-1.70;99.90;;;;;;5110694;28;19908;-42
2022/12/17 21:23:45;;;;;;;;;;;-1.80;99.90;;;;;;5111300;28;19908;-43
2022/12/17 21:26:15;;;;;;;;;;;-1.80;99.90;;;;;;5111730;28;19908;-40
2022/12/17 21:28:41;;;;;;;;;;;-1.90;99.90;;;;;;5112194;28;19919;-46
2022/12/17 21:31:26;;;;;;;;;;;-1.90;99.90;;;;;;5113009;28;20286;-42
2022/12/17 21:33:53;;;;;;;;;;;-1.90;99.90;;;;;;5113001;28;19953;-42
2022/12/17 21:36:19;;;;;;;;;;;-1.90;99.90;;;;;;5111175;28;20386;-42
2022/12/17 21:38:45;;;;;;;;;;;-1.90;99.90;;;;;;5112841;28;19915;-42
2022/12/17 21:41:13;;;;;;;;;;;-2.00;99.90;;;;;;5112100;28;19908;-42
2022/12/17 21:43:39;;;;;;;;;;;-2.00;99.90;;;;;;5112551;28;20274;-43
2022/12/17 21:46:07;;;;;;;;;;;-2.00;99.90;;;;;;5112875;28;19908;-43
2022/12/17 21:48:33;;;;;;;;;;;-1.90;99.90;;;;;;5111557;28;20006;-43
2022/12/17 21:50:58;;;;;;;;;;;-1.90;99.90;;;;;;5112958;28;20423;-42
2022/12/17 21:53:24;;;;;;;;;;;-2.00;99.90;;;;;;5112065;28;20385;-42
2022/12/17 21:55:50;;;;;;;;;;;-2.00;99.90;;;;;;5112205;28;19907;-42
2022/12/17 21:58:15;;;;;;;;;;;-2.00;99.90;;;;;;5112475;28;19930;-42
2022/12/17 22:00:41;;;;;;;;;;;-1.90;99.90;;;;;;5106327;28;20322;-41
2022/12/17 22:03:06;;;;;;;;;;;-1.90;99.90;;;;;;5116359;27;19915;-42
2022/12/17 22:05:34;;;;;;;;;;;-1.90;99.90;;;;;;5132577;27;19962;-43
2022/12/17 22:07:59;;;;;;;;;;;-1.90;99.90;;;;;;5113307;27;19918;-42
2022/12/17 22:10:25;;;;;;;;;;;-1.90;99.90;;;;;;5110340;28;20002;-42
2022/12/17 22:15:36;;;;;;;;;;;-1.90;99.90;;;;;;5108287;28;19965;-41
2022/12/17 22:18:02;;;;;;;;;;;-1.90;99.90;;;;;;5111526;28;19920;-42
2022/12/17 22:20:27;;;;;;;;;;;-2.00;99.90;;;;;;5111075;28;20041;-43
2022/12/17 22:22:53;;;;;;;;;;;-1.90;99.90;;;;;;5111555;28;19914;-42
2022/12/17 22:25:18;;;;;;;;;;;-1.90;99.90;;;;;;5110411;28;19908;-41
2022/12/17 22:27:44;;;;;;;;;;;-2.00;99.90;;;;;;5110375;28;20038;-42
2022/12/17 22:32:59;;;;;;;;;;;-2.00;99.90;;;;;;5109600;28;19915;-44
2022/12/17 22:35:25;;;;;;;;;;;-2.00;99.90;;;;;;5110211;28;19908;-42
2022/12/17 22:37:51;;;;;;;;;;;-2.00;99.90;;;;;;5109807;28;19963;-42
2022/12/17 22:40:19;;;;;;;;;;;-2.00;99.90;;;;;;5110287;28;19962;-42
2022/12/17 22:45:29;;;;;;;;;;;-2.10;99.90;;;;;;5108339;28;20306;-40
2022/12/17 22:47:54;;;;;;;;;;;-2.10;99.90;;;;;;5112744;28;19916;-41
2022/12/17 22:50:19;;;;;;;;;;;-2.10;99.90;;;;;;5115317;28;19908;-43
2022/12/17 22:52:45;;;;;;;;;;;-2.20;99.90;;;;;;5114636;28;19953;-42
2022/12/17 22:55:12;;;;;;;;;;;-2.20;99.90;;;;;;5120110;27;20441;-43
2022/12/17 22:57:37;;;;;;;;;;;-2.30;99.90;;;;;;5115830;28;19916;-43
2022/12/17 23:00:10;;;;;;;;;;;-2.30;99.90;;;;;;5115486;28;20006;-44
2022/12/17 23:02:35;;;;;;;;;;;-2.30;99.90;;;;;;5115371;28;19908;-43
2022/12/17 23:05:00;;;;;;;;;;;-2.30;99.90;;;;;;5111773;28;19915;-42
2022/12/17 23:07:26;;;;;;;;;;;-2.30;99.90;;;;;;5094458;28;20363;-42
2022/12/17 23:09:51;;;;;;;;;;;-2.30;99.90;;;;;;5095577;28;19908;-43
2022/12/17 23:15:01;;;;;;;;;;;-2.30;99.90;;;;;;5095391;28;19915;-43
2022/12/17 23:17:26;;;;;;;;;;;-2.30;99.90;;;;;;5095030;28;19916;-43
2022/12/17 23:19:52;;;;;;;;;;;-2.40;99.90;;;;;;5094751;28;19912;-43
2022/12/17 23:22:17;;;;;;;;;;;-2.40;99.90;;;;;;5095150;28;20362;-42
2022/12/17 23:24:43;;;;;;;;;;;-2.40;99.90;;;;;;5095021;28;19908;-43
2022/12/17 23:27:08;;;;;;;;;;;-2.50;99.90;;;;;;5094347;28;20000;-42
2022/12/17 23:29:34;;;;;;;;;;;-2.50;99.90;;;;;;5097555;28;19912;-43
2022/12/17 23:32:01;;;;;;;;;;;-2.60;99.90;;;;;;5115147;28;19908;-43
2022/12/17 23:34:26;;;;;;;;;;;-2.50;99.90;;;;;;5114309;28;20366;-43
2022/12/17 23:36:52;;;;;;;;;;;-2.50;99.90;;;;;;5115353;28;20008;-43
2022/12/17 23:39:17;;;;;;;;;;;-2.50;99.90;;;;;;5115305;28;20283;-40
2022/12/17 23:41:43;;;;;;;;;;;-2.50;99.90;;;;;;5113368;28;19941;-43
2022/12/17 23:44:09;;;;;;;;;;;;;;;;;;5115307;28;19961;-43
2022/12/17 23:46:34;;;;;;;;;;;-2.50;99.90;;;;;;5095246;28;19943;-41
2022/12/17 23:49:02;;;;;;;;;;;-2.50;99.90;;;;;;5094055;28;20357;-44
2022/12/17 23:51:28;;;;;;;;;;;-2.40;99.90;;;;;;5094381;28;19995;-42
2022/12/17 23:53:53;;;;;;;;;;;-2.40;99.90;;;;;;5094519;28;20355;-42
2022/12/17 23:56:23;;;;;;;;;;;-2.50;99.90;;;;;;5126224;27;20255;-43
2022/12/17 23:58:51;;;;;;;;;;;-2.50;99.90;;;;;;5135024;27;19933;-42
